Time;durP1;ratioP1;P1;durP2;ratioP2;P2;SDS_P1;SDS_P2;PMS_P1;PMS_P2;Temp;Humidity;BMP_temperature;BMP_pressure;BME280_temperature;BME280_humidity;BME280_pressure;Samples;Min_cycle;Max_cycle;Signal;HPM_P1;HPM_P2
2021/03/06 00:01:03;;;;;;;10.75;4.93;;;;;;;-1.50;89.04;102399.25;5204989;28;20037;-78
2021/03/06 00:03:33;;;;;;;11.05;5.05;;;;;;;-1.58;88.70;102392.94;5189089;28;20037;-78
2021/03/06 00:06:04;;;;;;;10.40;5.10;;;;;;;-1.82;90.54;102387.66;5188886;28;20094;-78
2021/03/06 00:08:34;;;;;;;12.98;6.22;;;;;;;-1.81;91.14;102394.53;5189373;28;20024;-78
2021/03/06 00:11:04;;;;;;;13.10;5.97;;;;;;;-1.72;91.37;102389.78;5194840;28;20054;-78
2021/03/06 00:13:35;;;;;;;10.35;6.05;;;;;;;-1.75;90.37;102391.34;5198158;28;20025;-78
2021/03/06 00:16:06;;;;;;;13.77;6.65;;;;;;;-1.80;89.67;102396.28;5189980;28;20101;-78
2021/03/06 00:18:36;;;;;;;13.18;6.63;;;;;;;-1.79;90.16;102399.69;5188698;28;20041;-78
2021/03/06 00:21:07;;;;;;;12.40;6.03;;;;;;;-1.83;91.41;102401.28;5192774;28;20049;-78
2021/03/06 00:23:37;;;;;;;15.00;6.43;;;;;;;-1.74;91.08;102408.47;5204143;28;20470;-78
2021/03/06 00:26:07;;;;;;;13.02;6.35;;;;;;;-1.67;90.12;102402.78;5210118;28;20089;-78
2021/03/06 00:28:38;;;;;;;10.52;5.50;;;;;;;-1.80;90.34;102401.41;5208711;28;20017;-78
2021/03/06 00:31:08;;;;;;;10.15;5.03;;;;;;;-1.41;88.51;102407.34;5197192;28;20108;-78
2021/03/06 00:33:38;;;;;;;15.23;5.53;;;;;;;-1.50;87.82;102401.81;5183710;28;20026;-78
2021/03/06 00:36:09;;;;;;;10.93;4.97;;;;;;;-1.68;89.00;102407.06;5183730;28;20021;-78
2021/03/06 00:38:39;;;;;;;10.20;4.90;;;;;;;-1.77;89.58;102408.34;5184071;28;20021;-78
2021/03/06 00:41:09;;;;;;;10.65;5.13;;;;;;;-1.86;90.05;102400.25;5181643;28;20503;-78
2021/03/06 00:43:40;;;;;;;9.88;4.80;;;;;;;-1.86;90.41;102404.53;5182238;28;20026;-78
2021/03/06 00:46:10;;;;;;;14.20;5.40;;;;;;;-1.96;90.23;102408.34;5183164;28;20018;-78
2021/03/06 00:48:40;;;;;;;12.50;5.43;;;;;;;-2.03;91.38;102401.22;5180609;28;20025;-79
2021/03/06 00:51:10;;;;;;;15.57;5.78;;;;;;;-2.08;92.00;102406.94;5182803;28;20120;-77
2021/03/06 00:53:41;;;;;;;10.43;5.07;;;;;;;-2.09;91.40;102406.06;5183706;28;20026;-77
2021/03/06 00:56:11;;;;;;;12.20;5.00;;;;;;;-2.12;91.37;102399.94;5183743;28;20056;-79
2021/03/06 00:58:41;;;;;;;12.90;4.88;;;;;;;-2.05;91.55;102397.72;5185017;28;20060;-79
2021/03/06 01:01:12;;;;;;;10.57;4.68;;;;;;;-2.05;91.78;102395.16;5191157;28;20026;-78
2021/03/06 01:03:42;;;;;;;8.68;4.75;;;;;;;-1.96;91.08;102398.09;5183253;28;20018;-78
2021/03/06 01:06:13;;;;;;;9.10;4.53;;;;;;;-1.96;90.75;102404.91;5183246;28;20041;-78
2021/03/06 01:08:43;;;;;;;11.63;5.10;;;;;;;-2.09;91.43;102400.94;5183014;28;20033;-78
2021/03/06 01:11:13;;;;;;;11.90;4.85;;;;;;;-2.02;91.55;102399.53;5190888;28;20033;-78
2021/03/06 01:13:44;;;;;;;11.25;4.72;;;;;;;-2.05;91.75;102395.16;5190730;28;20088;-79
2021/03/06 01:16:14;;;;;;;9.40;4.63;;;;;;;-1.98;91.48;102394.59;5183313;28;20465;-78
2021/03/06 01:18:44;;;;;;;11.70;4.93;;;;;;;-1.99;90.92;102385.16;5183179;28;20029;-78
2021/03/06 01:21:15;;;;;;;10.38;4.28;;;;;;;-1.93;90.66;102385.44;5182777;28;20076;-78
2021/03/06 01:23:46;;;;;;;12.20;4.75;;;;;;;-1.97;90.38;102391.22;5182795;28;20032;-78
2021/03/06 01:26:16;;;;;;;8.70;4.70;;;;;;;-1.92;90.59;102381.19;5182682;28;20026;-78
2021/03/06 01:28:47;;;;;;;12.93;4.68;;;;;;;-2.02;91.32;102386.75;5184811;28;20088;-78
2021/03/06 01:31:17;;;;;;;10.68;5.22;;;;;;;-2.14;92.07;102378.50;5188252;28;20020;-79
2021/03/06 01:33:47;;;;;;;9.15;4.65;;;;;;;-2.17;92.48;102370.69;5182754;28;20025;-77
2021/03/06 01:36:17;;;;;;;9.05;4.60;;;;;;;-2.14;92.27;102373.38;5182601;28;20030;-79
2021/03/06 01:38:48;;;;;;;10.13;5.00;;;;;;;-2.40;92.48;102374.78;5182699;28;20037;-78
2021/03/06 01:41:18;;;;;;;9.82;4.97;;;;;;;-2.39;92.75;102379.09;5190554;28;20560;-78
2021/03/06 01:43:48;;;;;;;12.90;5.55;;;;;;;-2.32;92.13;102364.91;5188889;28;20105;-78
2021/03/06 01:46:18;;;;;;;8.80;4.53;;;;;;;-2.19;91.97;102367.19;5182134;28;20034;-79
2021/03/06 01:48:49;;;;;;;12.25;4.22;;;;;;;-2.18;90.80;102368.94;5182012;28;20452;-77
2021/03/06 01:51:19;;;;;;;13.65;5.28;;;;;;;-2.21;91.50;102368.78;5181878;28;20034;-78
2021/03/06 01:53:49;;;;;;;11.63;4.93;;;;;;;-2.31;91.86;102357.25;5182235;28;20529;-79
2021/03/06 01:56:21;;;;;;;11.88;5.13;;;;;;;-2.24;91.50;102363.53;5170694;28;20516;-79
2021/03/06 01:58:51;;;;;;;9.93;5.03;;;;;;;-2.20;91.65;102358.63;5177495;28;20030;-77
2021/03/06 02:01:21;;;;;;;10.15;4.97;;;;;;;-2.00;89.57;102359.50;5181143;28;20083;-78
2021/03/06 02:03:52;;;;;;;13.52;4.97;;;;;;;-2.23;90.71;102363.63;5182325;28;20077;-77
2021/03/06 02:06:23;;;;;;;10.57;5.13;;;;;;;-2.31;91.81;102364.94;5182100;28;20022;-78
2021/03/06 02:08:54;;;;;;;12.13;5.38;;;;;;;-2.26;91.83;102365.16;5184501;28;20036;-78
2021/03/06 02:12:03;;;;;;;12.27;5.07;;;;;;;-2.18;91.45;102361.25;5193414;28;20096;-78
2021/03/06 02:15:00;;;;;;;11.85;4.88;;;;;;;-2.16;89.98;102357.94;5196005;28;20037;-78
2021/03/06 02:17:42;;;;;;;10.80;5.03;;;;;;;-2.19;90.79;102346.72;5208584;28;20797;-78
2021/03/06 02:20:37;;;;;;;11.80;5.22;;;;;;;-2.29;91.40;102360.78;5208797;28;20032;-78
2021/03/06 02:23:15;;;;;;;12.70;5.05;;;;;;;-2.31;90.98;102349.59;5207614;28;20025;-78
2021/03/06 02:26:09;;;;;;;10.90;5.10;;;;;;;-2.36;92.58;102340.84;5207943;28;20054;-78
2021/03/06 02:29:16;;;;;;;9.35;5.05;;;;;;;-2.37;91.87;102339.09;5206719;28;20025;-78
2021/03/06 02:31:48;;;;;;;9.23;4.70;;;;;;;-2.41;91.75;102344.00;5191256;28;20022;-78
2021/03/06 02:34:25;;;;;;;9.27;4.80;;;;;;;-2.53;92.18;102346.88;5186727;28;20101;-78
2021/03/06 02:37:00;;;;;;;9.27;4.60;;;;;;;-2.42;92.03;102348.25;5186592;28;20029;-78
2021/03/06 02:39:33;;;;;;;10.98;5.10;;;;;;;-2.42;91.74;102337.13;5186970;28;20022;-78
2021/03/06 02:42:05;;;;;;;8.98;4.53;;;;;;;-2.43;91.33;102345.63;5197854;28;20507;-77
2021/03/06 02:44:36;;;;;;;7.60;4.32;;;;;;;-2.39;92.24;102338.16;5190160;28;20030;-77
2021/03/06 02:47:07;;;;;;;8.55;4.80;;;;;;;-2.34;91.64;102341.78;5186833;28;20053;-77
2021/03/06 02:49:38;;;;;;;8.63;4.90;;;;;;;-2.36;91.77;102343.41;5186291;28;20030;-78
2021/03/06 02:52:08;;;;;;;8.13;4.35;;;;;;;-2.26;91.98;102345.56;5186295;28;20026;-77
2021/03/06 02:54:38;;;;;;;9.15;4.13;;;;;;;-2.34;91.81;102339.22;5186631;28;20045;-77
2021/03/06 02:57:09;;;;;;;8.05;4.43;;;;;;;-2.30;90.55;102338.53;5186022;28;20515;-77
2021/03/06 03:00:10;;;;;;;8.95;4.88;;;;;;;-2.45;90.68;102345.56;5187304;28;20026;-77
2021/03/06 03:03:12;;;;;;;8.93;4.28;;;;;;;-2.41;91.78;102355.13;5181478;28;20030;-76
2021/03/06 03:05:50;;;;;;;11.77;4.07;;;;;;;-2.49;93.26;102353.88;5182375;28;20579;-77
2021/03/06 03:08:29;;;;;;;9.93;4.20;;;;;;;-2.44;93.53;102349.00;5182278;28;20025;-78
2021/03/06 03:11:03;;;;;;;6.88;3.67;;;;;;;-2.31;92.43;102347.03;5187963;28;20032;-77
2021/03/06 03:14:00;;;;;;;8.60;4.20;;;;;;;-2.29;91.67;102345.44;5190802;28;20093;-78
2021/03/06 03:16:34;;;;;;;13.15;4.20;;;;;;;-2.29;92.20;102342.88;5179702;28;20038;-78
2021/03/06 03:19:30;;;;;;;12.80;4.35;;;;;;;-2.25;92.48;102342.19;5182784;28;20113;-76
2021/03/06 03:22:04;;;;;;;10.85;4.57;;;;;;;-2.36;93.63;102345.97;5182347;28;20030;-76
2021/03/06 03:24:37;;;;;;;7.80;3.80;;;;;;;-2.31;93.55;102346.16;5182183;28;20392;-77
2021/03/06 03:27:10;;;;;;;8.75;4.05;;;;;;;-2.46;93.75;102343.81;5182396;28;20025;-77
2021/03/06 03:29:41;;;;;;;6.95;3.72;;;;;;;-2.35;93.30;102350.28;5186503;28;20034;-78
2021/03/06 03:32:13;;;;;;;9.27;4.13;;;;;;;-2.38;92.89;102347.56;5186893;28;20080;-77
2021/03/06 03:34:45;;;;;;;7.45;3.88;;;;;;;-2.32;92.37;102349.53;5182260;28;20054;-77
2021/03/06 03:37:16;;;;;;;12.63;4.35;;;;;;;-2.47;92.83;102354.81;5183108;28;20128;-77
2021/03/06 03:39:47;;;;;;;8.48;4.00;;;;;;;-2.40;92.99;102354.31;5181773;28;20082;-77
2021/03/06 03:42:20;;;;;;;9.38;3.75;;;;;;;-2.38;93.46;102350.13;5195252;28;20684;-77
2021/03/06 03:44:51;;;;;;;8.82;4.20;;;;;;;-2.30;92.71;102343.66;5183247;28;20031;-76
2021/03/06 03:47:21;;;;;;;6.13;3.30;;;;;;;-2.37;92.53;102354.44;5182229;28;20032;-78
2021/03/06 03:49:52;;;;;;;8.80;3.85;;;;;;;-2.44;92.71;102355.00;5182353;28;20109;-77
2021/03/06 03:52:22;;;;;;;8.93;3.60;;;;;;;-2.41;93.42;102350.00;5181895;28;20022;-77
2021/03/06 03:54:53;;;;;;;8.15;3.75;;;;;;;-2.39;92.95;102357.72;5181725;28;20026;-77
2021/03/06 03:57:23;;;;;;;8.98;4.00;;;;;;;-2.52;93.06;102355.47;5181966;28;20026;-77
2021/03/06 03:59:53;;;;;;;6.30;3.50;;;;;;;-2.39;93.93;102347.50;5188369;28;20623;-78
2021/03/06 04:02:27;;;;;;;7.03;3.65;;;;;;;-2.40;92.82;102359.44;5183486;28;20034;-77
2021/03/06 04:04:57;;;;;;;8.73;3.75;;;;;;;-2.50;93.35;102364.06;5181735;28;20037;-76
2021/03/06 04:07:27;;;;;;;10.32;4.20;;;;;;;-2.59;93.50;102361.97;5182422;28;20412;-77
2021/03/06 04:09:58;;;;;;;9.98;3.78;;;;;;;-2.62;94.56;102364.41;5185168;28;20026;-77
2021/03/06 04:12:28;;;;;;;8.63;3.90;;;;;;;-2.62;94.43;102354.16;5188054;28;20026;-77
2021/03/06 04:14:58;;;;;;;7.05;3.70;;;;;;;-2.55;94.33;102360.44;5188242;28;20028;-77
2021/03/06 04:17:28;;;;;;;8.38;4.05;;;;;;;-2.62;94.29;102364.41;5186199;28;20083;-78
2021/03/06 04:19:59;;;;;;;11.60;4.13;;;;;;;-2.64;94.25;102363.47;5185499;28;20033;-77
2021/03/06 04:22:29;;;;;;;8.20;3.70;;;;;;;-2.70;94.51;102365.72;5186617;28;20026;-77
2021/03/06 04:24:59;;;;;;;10.05;4.20;;;;;;;-2.59;93.88;102373.88;5182821;28;20030;-77
2021/03/06 04:27:30;;;;;;;11.40;4.03;;;;;;;-2.59;93.69;102374.78;5186034;28;20025;-77
2021/03/06 04:30:00;;;;;;;8.75;4.07;;;;;;;-2.53;93.83;102369.91;5185876;28;20033;-77
2021/03/06 04:32:31;;;;;;;6.28;3.45;;;;;;;-2.48;93.37;102371.00;5202956;28;20187;-77
2021/03/06 04:35:02;;;;;;;10.77;3.70;;;;;;;-2.52;92.81;102370.81;5204254;28;20032;-77
2021/03/06 04:37:32;;;;;;;8.95;3.88;;;;;;;-2.55;92.57;102371.53;5206114;28;20030;-78
2021/03/06 04:40:05;;;;;;;10.02;3.53;;;;;;;-2.49;91.80;102373.50;5203507;28;20538;-78
2021/03/06 04:42:36;;;;;;;7.72;3.72;;;;;;;-2.46;91.75;102378.75;5197768;28;20037;-76
2021/03/06 04:45:08;;;;;;;8.30;4.13;;;;;;;-2.50;91.73;102380.28;5185364;28;20492;-78
2021/03/06 04:47:42;;;;;;;7.28;3.35;;;;;;;-2.46;91.68;102379.66;5185165;28;20026;-77
2021/03/06 04:50:13;;;;;;;6.90;3.50;;;;;;;-2.56;92.23;102377.47;5184544;28;20026;-76
2021/03/06 04:52:44;;;;;;;7.80;3.67;;;;;;;-2.60;91.36;102378.13;5181406;28;20030;-78
2021/03/06 04:55:14;;;;;;;7.80;4.03;;;;;;;-2.63;92.53;102378.00;5184602;28;20350;-77
2021/03/06 04:57:44;;;;;;;8.50;3.67;;;;;;;-2.74;93.45;102384.28;5184629;28;20014;-77
2021/03/06 05:00:15;;;;;;;7.90;3.92;;;;;;;-2.59;94.21;102379.00;5191401;28;20618;-77
2021/03/06 05:02:45;;;;;;;9.07;4.13;;;;;;;-2.72;93.49;102382.69;5182303;28;20604;-78
2021/03/06 05:05:16;;;;;;;10.82;4.40;;;;;;;-2.84;93.73;102384.66;5183186;28;20028;-77
2021/03/06 05:07:46;;;;;;;11.20;3.58;;;;;;;-3.02;95.73;102380.38;5183469;28;20140;-77
2021/03/06 05:10:19;;;;;;;9.98;4.05;;;;;;;-2.91;95.82;102385.19;5210157;22;20029;-78
2021/03/06 05:12:49;;;;;;;8.10;3.38;;;;;;;-2.73;96.45;102382.59;5225451;28;20486;-78
2021/03/06 05:15:21;;;;;;;7.47;2.90;;;;;;;-2.70;95.51;102386.19;5225726;28;20031;-78
2021/03/06 05:17:51;;;;;;;9.65;3.40;;;;;;;-2.61;95.40;102390.84;5226373;28;20143;-78
2021/03/06 05:20:22;;;;;;;8.05;3.50;;;;;;;-2.50;93.36;102380.28;5225718;28;20056;-78
2021/03/06 05:22:52;;;;;;;7.88;3.38;;;;;;;-2.48;92.72;102375.25;5226111;28;20055;-78
2021/03/06 05:25:22;;;;;;;12.40;3.33;;;;;;;-2.44;94.65;102375.47;5225007;28;20056;-78
2021/03/06 05:27:53;;;;;;;8.75;3.63;;;;;;;-2.31;94.79;102382.00;5208823;28;20029;-78
2021/03/06 05:30:24;;;;;;;13.05;4.03;;;;;;;-2.23;94.20;102390.88;5225837;28;20060;-78
2021/03/06 05:32:54;;;;;;;10.02;3.70;;;;;;;-2.19;94.58;102385.97;5225414;28;20048;-78
2021/03/06 05:35:24;;;;;;;11.23;3.92;;;;;;;-2.14;94.52;102394.72;5226496;28;20071;-78
2021/03/06 05:37:55;;;;;;;10.05;3.83;;;;;;;-2.09;94.77;102390.72;5226280;28;20379;-78
2021/03/06 05:40:29;;;;;;;11.80;3.97;;;;;;;-2.02;95.19;102394.41;5226514;28;20025;-78
2021/03/06 05:42:59;;;;;;;8.57;3.57;;;;;;;-1.94;95.16;102386.25;5226937;28;20025;-79
2021/03/06 05:45:30;;;;;;;12.15;3.85;;;;;;;-1.87;95.08;102390.81;5209078;28;20291;-78
2021/03/06 05:48:01;;;;;;;8.98;3.30;;;;;;;-1.85;94.63;102386.63;5227204;28;20056;-78
2021/03/06 05:50:32;;;;;;;7.03;3.00;;;;;;;-1.81;94.01;102386.84;5225920;28;20466;-78
2021/03/06 05:53:05;;;;;;;9.93;3.28;;;;;;;-1.83;93.55;102388.47;5226640;28;20060;-78
2021/03/06 05:55:39;;;;;;;8.70;2.95;;;;;;;-1.75;94.18;102388.78;5208467;28;20086;-78
2021/03/06 05:58:10;;;;;;;8.57;3.80;;;;;;;-1.73;93.30;102392.28;5209875;28;20032;-81
2021/03/06 06:00:41;;;;;;;9.85;3.08;;;;;;;-1.83;93.41;102379.88;5226516;28;20025;-80
2021/03/06 06:03:12;;;;;;;12.15;3.40;;;;;;;-2.01;93.92;102386.78;5209616;28;20406;-80
2021/03/06 06:05:44;;;;;;;9.18;3.22;;;;;;;-2.27;95.32;102387.34;5228030;28;20032;-80
2021/03/06 06:08:15;;;;;;;8.50;3.25;;;;;;;-2.04;94.38;102383.19;5208645;28;20043;-81
2021/03/06 06:10:46;;;;;;;12.05;3.05;;;;;;;-2.00;95.19;102390.22;5209259;28;20025;-80
2021/03/06 06:13:17;;;;;;;10.20;3.40;;;;;;;-1.67;94.94;102393.44;5226684;28;20036;-81
2021/03/06 06:15:47;;;;;;;9.15;2.83;;;;;;;-1.58;94.49;102393.81;5209768;28;20039;-80
2021/03/06 06:18:18;;;;;;;11.18;3.25;;;;;;;-1.51;95.24;102394.94;5226947;28;20463;-80
2021/03/06 06:20:48;;;;;;;10.13;3.15;;;;;;;-1.54;96.05;102395.69;5227643;28;20021;-80
2021/03/06 06:23:19;;;;;;;11.43;3.40;;;;;;;-1.30;96.02;102388.13;5208616;28;20111;-81
2021/03/06 06:25:49;;;;;;;9.25;3.08;;;;;;;-1.13;95.32;102384.56;5226549;28;20027;-81
2021/03/06 06:28:19;;;;;;;7.05;2.75;;;;;;;-1.07;95.65;102393.38;5209386;28;20456;-80
2021/03/06 06:31:10;;;;;;;10.55;3.20;;;;;;;-0.89;94.75;102390.69;5205359;28;20120;-78
2021/03/06 06:33:40;;;;;;;8.02;3.25;;;;;;;-1.01;94.88;102397.88;5202268;28;20028;-80
2021/03/06 06:36:30;;;;;;;11.02;2.80;;;;;;;-0.64;95.75;102396.81;5230949;28;20033;-80
2021/03/06 06:39:01;;;;;;;9.35;2.85;;;;;;;-0.64;95.23;102398.50;5213252;28;20028;-80
2021/03/06 06:41:53;;;;;;;9.27;3.20;;;;;;;-0.56;96.33;102397.97;5222603;28;20047;-80
2021/03/06 06:44:25;;;;;;;10.02;3.30;;;;;;;-0.62;95.94;102396.84;5212309;28;20057;-81
2021/03/06 06:46:56;;;;;;;11.57;3.38;;;;;;;-0.53;96.31;102407.50;5208624;28;20013;-81
2021/03/06 06:49:27;;;;;;;10.65;3.30;;;;;;;-0.28;95.25;102405.00;5218655;28;20020;-79
2021/03/06 06:52:00;;;;;;;6.75;3.30;;;;;;;-0.11;95.38;102406.50;5219439;28;20032;-79
2021/03/06 06:54:32;;;;;;;7.90;2.92;;;;;;;-0.06;94.19;102405.00;5223605;28;20532;-79
2021/03/06 06:57:13;;;;;;;11.65;3.00;;;;;;;-0.05;92.56;102410.19;5217419;28;20021;-79
2021/03/06 07:00:00;;;;;;;9.52;3.00;;;;;;;0.09;92.56;102404.72;5206938;28;20025;-79
2021/03/06 07:02:30;;;;;;;9.25;3.05;;;;;;;0.10;92.92;102405.59;5221115;28;20172;-79
2021/03/06 07:05:04;;;;;;;10.27;3.17;;;;;;;0.14;92.03;102407.44;5226112;28;20111;-78
2021/03/06 07:07:42;;;;;;;8.15;3.10;;;;;;;0.29;91.63;102403.72;5226594;28;20526;-79
2021/03/06 07:10:16;;;;;;;10.95;3.00;;;;;;;0.53;89.60;102409.69;5224085;28;20029;-79
2021/03/06 07:13:00;;;;;;;10.10;3.70;;;;;;;0.73;89.53;102400.94;5225642;28;20033;-79
2021/03/06 07:15:32;;;;;;;12.68;3.90;;;;;;;0.85;87.62;102405.59;5204280;28;20017;-79
2021/03/06 07:18:09;;;;;;;9.55;3.70;;;;;;;1.05;87.24;102417.47;5225742;28;20025;-79
2021/03/06 07:20:40;;;;;;;8.55;3.03;;;;;;;1.10;88.50;102405.59;5226080;28;20025;-79
2021/03/06 07:23:21;;;;;;;8.57;3.00;;;;;;;1.21;86.36;102404.25;5225731;28;20593;-79
2021/03/06 07:25:54;;;;;;;9.43;2.92;;;;;;;1.24;86.07;102410.34;5208188;28;20094;-79
2021/03/06 07:28:24;;;;;;;10.20;2.97;;;;;;;1.53;86.17;102418.94;5223796;28;20017;-79
2021/03/06 07:30:57;;;;;;;9.30;3.15;;;;;;;1.52;86.24;102410.38;5225815;28;20104;-79
2021/03/06 07:33:27;;;;;;;12.57;3.42;;;;;;;1.56;86.50;102409.63;5226066;28;20658;-79
2021/03/06 07:35:58;;;;;;;7.03;3.00;;;;;;;1.72;86.17;102416.97;5226372;28;20025;-79
2021/03/06 07:38:28;;;;;;;8.18;3.30;;;;;;;1.49;86.29;102415.44;5208575;28;20501;-79
2021/03/06 07:41:02;;;;;;;11.50;3.35;;;;;;;1.81;85.84;102417.25;5223644;28;20108;-79
2021/03/06 07:43:36;;;;;;;8.00;3.17;;;;;;;1.70;85.21;102420.31;5222953;28;20021;-79
2021/03/06 07:46:09;;;;;;;8.60;2.92;;;;;;;1.79;84.92;102414.63;5230363;28;20083;-79
2021/03/06 07:48:42;;;;;;;9.50;3.50;;;;;;;1.79;85.82;102416.34;5230768;28;20043;-79
2021/03/06 07:51:12;;;;;;;11.35;3.08;;;;;;;1.71;85.07;102425.53;5209867;28;20020;-79
2021/03/06 07:53:47;;;;;;;10.30;3.38;;;;;;;1.56;87.29;102424.22;5239892;28;20028;-78
2021/03/06 07:56:17;;;;;;;9.60;2.80;;;;;;;1.68;86.95;102428.03;5234793;28;20028;-79
2021/03/06 07:58:50;;;;;;;7.25;2.72;;;;;;;1.69;87.00;102428.88;5212244;28;20025;-79
2021/03/06 08:01:31;;;;;;;11.35;3.15;;;;;;;1.74;88.13;102423.03;5229323;28;20082;-79
2021/03/06 08:04:03;;;;;;;10.15;3.08;;;;;;;1.70;88.52;102433.22;5211640;28;20020;-79
2021/03/06 08:06:34;;;;;;;7.80;3.50;;;;;;;1.75;88.38;102432.53;5211165;28;20052;-79
2021/03/06 08:09:06;;;;;;;16.10;6.18;;;;;;;1.91;88.52;102425.31;5207260;28;20450;-79
2021/03/06 08:11:42;;;;;;;13.20;4.57;;;;;;;2.02;88.13;102423.03;5210270;28;20025;-77
2021/03/06 08:14:35;;;;;;;15.57;4.18;;;;;;;2.43;84.77;102427.59;5224887;28;20100;-78
2021/03/06 08:17:36;;;;;;;9.55;4.63;;;;;;;2.59;84.88;102429.75;5222043;28;20037;-78
2021/03/06 08:20:22;;;;;;;13.32;5.38;;;;;;;2.59;85.18;102429.75;5225877;28;20036;-78
2021/03/06 08:23:18;;;;;;;9.13;3.30;;;;;;;2.70;85.19;102433.50;5226098;28;20030;-78
2021/03/06 08:26:08;;;;;;;14.43;2.83;;;;;;;2.78;84.87;102431.97;5227699;28;20036;-78
2021/03/06 08:28:38;;;;;;;9.18;2.95;;;;;;;3.18;83.19;102424.38;5212667;28;20021;-79
2021/03/06 08:31:39;;;;;;;7.82;2.50;;;;;;;3.19;81.56;102427.00;5223974;28;20139;-78
2021/03/06 08:34:45;;;;;;;9.48;3.08;;;;;;;3.37;81.38;102429.13;5224851;28;20020;-78
2021/03/06 08:37:15;;;;;;;8.57;2.90;;;;;;;3.19;81.98;102426.13;5197448;28;20706;-78
2021/03/06 08:39:54;;;;;;;7.97;2.70;;;;;;;3.41;80.10;102420.63;5224150;28;20025;-78
2021/03/06 08:42:43;;;;;;;10.60;2.90;;;;;;;4.92;77.49;102421.94;5211011;28;20043;-79
2021/03/06 08:45:27;;;;;;;12.63;2.60;;;;;;;4.76;75.35;102424.25;5218265;28;20503;-79
2021/03/06 08:48:03;;;;;;;9.23;2.78;;;;;;;4.36;76.00;102422.66;5218449;28;20054;-78
2021/03/06 08:50:35;;;;;;;9.25;2.50;;;;;;;4.02;76.91;102422.84;5217969;28;20509;-79
2021/03/06 08:53:08;;;;;;;10.05;2.80;;;;;;;3.58;76.99;102428.78;5217932;28;20029;-78
2021/03/06 08:55:40;;;;;;;8.50;2.42;;;;;;;3.85;78.40;102413.88;5206295;28;20552;-79
2021/03/06 08:58:13;;;;;;;12.48;2.67;;;;;;;4.71;77.26;102419.00;5228681;28;20033;-78
2021/03/06 09:00:49;;;;;;;10.82;2.75;;;;;;;4.24;76.30;102412.06;5227458;28;20053;-78
2021/03/06 09:03:24;;;;;;;13.15;2.42;;;;;;;4.02;76.93;102417.69;5213725;28;20048;-78
2021/03/06 09:05:57;;;;;;;13.20;3.25;;;;;;;3.80;77.72;102423.22;5206923;28;20244;-78
2021/03/06 09:08:28;;;;;;;5.38;2.33;;;;;;;3.55;79.88;102432.13;5203456;28;20079;-78
2021/03/06 09:10:59;;;;;;;8.25;2.80;;;;;;;3.25;82.05;102432.31;5211720;28;20029;-78
2021/03/06 09:13:31;;;;;;;18.98;2.80;;;;;;;3.20;84.52;102431.31;5215893;28;20033;-78
2021/03/06 09:16:03;;;;;;;12.32;2.90;;;;;;;3.16;85.86;102431.22;5201911;28;20454;-78
2021/03/06 09:18:36;;;;;;;10.40;2.88;;;;;;;3.27;86.17;102417.72;5224432;28;20025;-79
2021/03/06 09:21:14;;;;;;;7.32;2.58;;;;;;;3.47;85.64;102419.03;5199945;28;20020;-79
2021/03/06 09:23:46;;;;;;;7.55;3.20;;;;;;;3.57;85.33;102425.28;5222617;28;20472;-79
2021/03/06 09:26:19;;;;;;;7.85;3.08;;;;;;;3.60;85.21;102421.94;5203355;28;20028;-78
2021/03/06 09:28:53;;;;;;;10.32;3.47;;;;;;;3.62;84.64;102419.38;5210537;28;20456;-79
2021/03/06 09:31:30;;;;;;;9.50;3.35;;;;;;;3.71;85.58;102417.00;5224692;28;20672;-79
2021/03/06 09:34:02;;;;;;;8.88;2.85;;;;;;;4.62;82.49;102425.75;5220728;28;20521;-79
2021/03/06 09:36:33;;;;;;;9.48;2.67;;;;;;;4.73;81.17;102426.78;5217413;28;20024;-79
2021/03/06 09:39:05;;;;;;;9.02;3.00;;;;;;;4.42;80.04;102425.38;5198588;28;20043;-79
2021/03/06 09:41:41;;;;;;;12.30;2.80;;;;;;;4.21;81.29;102424.06;5205679;28;20410;-80
2021/03/06 09:44:14;;;;;;;11.95;2.40;;;;;;;4.18;81.44;102424.03;5203958;28;20021;-79
2021/03/06 09:46:45;;;;;;;9.52;2.45;;;;;;;4.15;81.76;102421.38;5199313;28;20021;-79
2021/03/06 09:49:15;;;;;;;13.25;2.80;;;;;;;4.03;82.28;102419.41;5199673;28;20047;-79
2021/03/06 09:51:54;;;;;;;9.57;2.40;;;;;;;4.06;82.40;102419.47;5199124;28;20025;-79
2021/03/06 09:54:26;;;;;;;8.70;1.80;;;;;;;4.19;82.40;102426.66;5214685;28;20099;-79
2021/03/06 09:57:02;;;;;;;5.38;1.52;;;;;;;4.34;81.68;102426.06;5216775;28;20056;-79
2021/03/06 09:59:38;;;;;;;9.63;1.88;;;;;;;4.53;81.35;102428.16;5202748;28;20027;-79
2021/03/06 10:02:13;;;;;;;8.88;2.53;;;;;;;4.72;80.97;102425.94;5223995;28;20035;-80
2021/03/06 10:04:46;;;;;;;11.52;2.17;;;;;;;4.78;80.60;102435.53;5215660;28;20017;-79
2021/03/06 10:07:24;;;;;;;7.40;1.55;;;;;;;4.29;85.88;102436.31;5208180;28;20498;-79
2021/03/06 10:09:54;;;;;;;7.47;1.85;;;;;;;4.16;88.73;102436.91;5222347;28;20029;-79
2021/03/06 10:12:24;;;;;;;10.95;2.08;;;;;;;4.09;88.05;102429.03;5224177;28;20116;-79
2021/03/06 10:14:56;;;;;;;9.80;2.03;;;;;;;3.93;87.42;102433.00;5208118;28;20020;-79
2021/03/06 10:17:27;;;;;;;5.50;1.73;;;;;;;3.97;86.74;102429.63;5223807;28;20090;-79
2021/03/06 10:19:58;;;;;;;7.70;2.10;;;;;;;4.21;85.99;102432.72;5206272;28;20025;-79
2021/03/06 10:22:28;;;;;;;13.35;2.08;;;;;;;4.46;85.39;102432.34;5216080;28;20020;-79
2021/03/06 10:25:03;;;;;;;11.50;2.42;;;;;;;4.77;85.50;102434.63;5216653;28;20021;-79
2021/03/06 10:27:45;;;;;;;6.10;1.90;;;;;;;4.63;83.61;102428.34;5217131;28;20025;-79
2021/03/06 10:30:30;;;;;;;15.82;4.85;;;;;;;4.95;83.25;102429.78;5225274;28;20056;-79
2021/03/06 10:33:03;;;;;;;10.77;2.90;;;;;;;5.04;83.48;102435.13;5203074;28;20034;-79
2021/03/06 10:35:52;;;;;;;9.20;3.30;;;;;;;5.42;82.88;102434.84;5209146;28;20096;-79
2021/03/06 10:38:26;;;;;;;7.40;2.90;;;;;;;5.46;82.08;102430.59;5218692;28;20109;-79
2021/03/06 10:40:58;;;;;;;8.20;2.30;;;;;;;5.39;82.03;102436.53;5207181;28;20021;-79
2021/03/06 10:43:29;;;;;;;7.65;2.08;;;;;;;5.39;83.57;102432.22;5208040;28;20043;-79
2021/03/06 10:46:09;;;;;;;7.50;2.10;;;;;;;5.48;82.79;102428.88;5225803;28;20056;-79
2021/03/06 10:48:40;;;;;;;5.47;1.58;;;;;;;5.21;84.60;102436.25;5225638;28;20024;-79
2021/03/06 10:51:11;;;;;;;8.55;1.77;;;;;;;4.86;86.58;102434.81;5225063;28;20025;-79
2021/03/06 10:53:42;;;;;;;7.93;1.92;;;;;;;4.96;87.72;102434.09;5220970;28;20029;-79
2021/03/06 10:56:19;;;;;;;6.32;1.60;;;;;;;4.62;88.55;102429.19;5197616;28;20131;-78
2021/03/06 10:58:50;;;;;;;9.55;1.92;;;;;;;4.61;88.18;102437.81;5217430;28;20041;-79
2021/03/06 11:01:20;;;;;;;7.82;1.75;;;;;;;4.54;87.80;102428.19;5221790;28;20122;-78
2021/03/06 11:03:51;;;;;;;7.15;1.88;;;;;;;4.78;87.85;102423.44;5205148;28;20616;-78
2021/03/06 11:06:22;;;;;;;5.53;1.67;;;;;;;5.21;86.90;102420.72;5220769;28;20659;-78
2021/03/06 11:09:04;;;;;;;14.07;2.10;;;;;;;5.56;85.46;102409.16;5221382;28;20021;-77
2021/03/06 11:11:34;;;;;;;6.03;1.88;;;;;;;5.75;83.38;102408.53;5200838;28;20033;-77
2021/03/06 11:14:04;;;;;;;10.30;2.10;;;;;;;5.63;82.68;102406.66;5217928;28;20027;-78
2021/03/06 11:16:37;;;;;;;8.50;3.67;;;;;;;5.73;82.01;102405.06;5219106;28;20040;-76
2021/03/06 11:19:07;;;;;;;7.57;1.88;;;;;;;5.60;82.55;102409.19;5210384;28;20021;-77
2021/03/06 11:21:38;;;;;;;6.72;1.85;;;;;;;5.59;83.00;102401.41;5201808;28;20033;-78
2021/03/06 11:24:09;;;;;;;9.43;1.95;;;;;;;5.45;83.47;102413.28;5204537;28;20112;-78
2021/03/06 11:26:40;;;;;;;8.35;1.80;;;;;;;5.51;83.29;102401.28;5203091;28;20037;-79
2021/03/06 11:29:10;;;;;;;5.40;1.88;;;;;;;5.93;82.93;102403.63;5203998;28;20108;-77
2021/03/06 11:31:43;;;;;;;7.22;1.90;;;;;;;5.95;82.50;102396.72;5218620;28;20041;-78
2021/03/06 11:34:13;;;;;;;7.68;1.90;;;;;;;5.71;82.29;102398.97;5220032;28;20868;-78
2021/03/06 11:36:43;;;;;;;4.70;1.85;;;;;;;5.78;83.14;102408.56;5203947;28;20033;-77
2021/03/06 11:39:14;;;;;;;8.50;2.25;;;;;;;5.47;83.42;102393.44;5210477;28;20414;-77
2021/03/06 11:41:44;;;;;;;7.60;2.28;;;;;;;5.51;84.45;102395.22;5205550;28;20067;-78
2021/03/06 11:44:15;;;;;;;7.78;2.45;;;;;;;6.07;83.91;102387.34;5207621;28;20049;-78
2021/03/06 11:46:45;;;;;;;13.90;2.47;;;;;;;6.28;83.26;102384.97;5219144;28;20033;-78
2021/03/06 11:49:15;;;;;;;7.60;1.95;;;;;;;5.93;83.38;102382.84;5222809;28;20017;-78
2021/03/06 11:51:46;;;;;;;5.50;1.58;;;;;;;6.10;84.96;102381.34;5222252;28;20100;-78
2021/03/06 11:54:16;;;;;;;7.70;2.08;;;;;;;6.11;83.75;102377.88;5221782;28;20124;-78